Time;durP1;ratioP1;P1;durP2;ratioP2;P2;SDS_P1;SDS_P2;PMS_P1;PMS_P2;Temp;Humidity;BMP_temperature;BMP_pressure;BME280_temperature;BME280_humidity;BME280_pressure;Samples;Min_cycle;Max_cycle;Signal;HPM_P1;HPM_P2
2023/06/11 00:01:34;;;;;;;5.05;3.20;;;16.50;99.90;;;;;;6145837;23;20084;-78
2023/06/11 00:04:00;;;;;;;9.18;4.13;;;16.10;99.90;;;;;;6149790;23;20346;-79
2023/06/11 00:06:26;;;;;;;5.50;3.03;;;16.80;99.90;;;;;;6147921;23;20121;-77
2023/06/11 00:08:54;;;;;;;8.52;4.05;;;16.70;99.90;;;;;;6148891;23;20001;-77
2023/06/11 00:11:21;;;;;;;6.28;3.50;;;15.90;99.90;;;;;;6149406;23;20006;-77
2023/06/11 00:13:48;;;;;;;8.00;4.38;;;;;;;;;;6148710;23;20009;-78
2023/06/11 00:16:16;;;;;;;5.57;3.15;;;15.90;99.90;;;;;;6152491;23;20009;-78
2023/06/11 00:18:42;;;;;;;5.95;3.60;;;;;;;;;;6148346;23;20021;-78
2023/06/11 00:21:13;;;;;;;5.65;3.60;;;16.10;99.90;;;;;;6148308;23;20010;-79
2023/06/11 00:23:39;;;;;;;7.85;3.60;;;16.50;99.90;;;;;;6147075;23;20010;-78
2023/06/11 00:26:10;;;;;;;6.07;3.40;;;16.10;99.90;;;;;;6151405;23;19996;-78
2023/06/11 00:28:36;;;;;;;9.07;4.22;;;;;;;;;;6149322;23;19998;-78
2023/06/11 00:31:03;;;;;;;5.80;3.63;;;16.00;99.90;;;;;;6145690;23;20052;-78
2023/06/11 00:33:29;;;;;;;4.97;3.97;;;;;;;;;;6148481;23;20067;-78
2023/06/11 00:35:55;;;;;;;7.63;4.28;;;;;;;;;;6149589;23;20477;-79
2023/06/11 00:38:22;;;;;;;7.13;4.60;;;16.50;99.90;;;;;;6148101;23;19998;-77
2023/06/11 00:40:48;;;;;;;9.75;4.53;;;15.10;99.90;;;;;;6120259;23;20014;-75
2023/06/11 00:43:17;;;;;;;6.45;4.05;;;;;;;;;;6146627;23;20398;-78
2023/06/11 00:45:44;;;;;;;8.48;4.60;;;;;;;;;;6144748;23;20064;-78
2023/06/11 00:48:11;;;;;;;8.13;4.60;;;15.50;99.90;;;;;;6150475;23;20605;-79
2023/06/11 00:50:45;;;;;;;8.30;4.15;;;15.70;99.90;;;;;;6151440;23;20394;-79
2023/06/11 00:53:11;;;;;;;8.70;4.05;;;15.50;99.90;;;;;;6149978;23;20013;-79
2023/06/11 00:55:37;;;;;;;8.57;5.03;;;16.00;99.90;;;;;;6151319;23;20539;-77
2023/06/11 00:58:03;;;;;;;6.60;3.83;;;;;;;;;;6147619;23;19997;-78
2023/06/11 01:00:29;;;;;;;7.82;3.65;;;;;;;;;;6150955;23;20065;-80
2023/06/11 01:03:05;;;;;;;9.07;4.05;;;15.50;99.90;;;;;;6152960;23;20494;-78
2023/06/11 01:05:42;;;;;;;8.25;4.28;;;15.50;99.90;;;;;;6148146;23;20052;-79
2023/06/11 01:08:13;;;;;;;9.27;3.88;;;16.00;99.90;;;;;;6152115;23;20008;-79
2023/06/11 01:10:40;;;;;;;7.15;4.15;;;15.40;99.90;;;;;;6149476;23;20059;-78
2023/06/11 01:13:06;;;;;;;7.20;4.32;;;15.20;99.90;;;;;;6148953;23;20009;-79
2023/06/11 01:15:31;;;;;;;6.38;4.40;;;15.50;99.90;;;;;;6144497;23;20060;-79
2023/06/11 01:18:02;;;;;;;6.43;4.30;;;15.40;99.90;;;;;;6149560;23;20001;-79
2023/06/11 01:20:41;;;;;;;8.13;4.60;;;15.00;99.90;;;;;;6148813;23;20016;-78
2023/06/11 01:23:14;;;;;;;6.63;4.13;;;13.80;99.90;;;;;;6146275;23;20002;-80
2023/06/11 01:26:01;;;;;;;9.20;5.30;;;15.30;99.90;;;;;;6147683;23;20017;-79
2023/06/11 01:28:31;;;;;;;7.32;4.55;;;15.30;99.90;;;;;;6151913;23;20025;-77
2023/06/11 01:30:59;;;;;;;7.85;4.45;;;15.20;99.90;;;;;;6146372;23;20010;-79
2023/06/11 01:33:27;;;;;;;9.00;4.30;;;;;;;;;;6147847;23;20029;-79
2023/06/11 01:35:57;;;;;;;6.90;3.95;;;15.30;99.90;;;;;;6145907;23;20612;-79
2023/06/11 01:38:23;;;;;;;7.78;4.40;;;;;;;;;;6143424;23;20065;-77
2023/06/11 01:40:49;;;;;;;10.45;4.50;;;15.20;99.90;;;;;;6151516;23;20058;-80
2023/06/11 01:43:15;;;;;;;7.65;3.80;;;;;;;;;;6148674;23;20005;-79
2023/06/11 01:45:41;;;;;;;6.40;3.70;;;13.70;99.90;;;;;;6148051;23;20033;-78
2023/06/11 01:48:07;;;;;;;5.90;3.88;;;;;;;;;;6173026;23;19986;-76
2023/06/11 01:50:33;;;;;;;7.10;4.25;;;14.80;99.90;;;;;;6181035;23;19994;-75
2023/06/11 01:52:59;;;;;;;5.20;3.70;;;14.80;99.90;;;;;;6176416;23;20032;-78
2023/06/11 01:55:25;;;;;;;7.35;4.35;;;;;;;;;;6178862;23;20007;-77
2023/06/11 01:57:50;;;;;;;11.27;4.20;;;14.50;99.90;;;;;;6173851;23;19990;-78
2023/06/11 02:00:18;;;;;;;9.40;4.15;;;14.70;99.90;;;;;;6156067;23;20048;-79
2023/06/11 02:02:47;;;;;;;6.03;3.80;;;14.70;99.90;;;;;;6153850;23;20006;-78
2023/06/11 02:05:12;;;;;;;7.57;4.07;;;14.50;99.90;;;;;;6149015;23;20002;-79
2023/06/11 02:07:38;;;;;;;8.88;4.03;;;;;;;;;;6149580;23;20013;-79
2023/06/11 02:10:04;;;;;;;6.30;3.55;;;14.90;99.90;;;;;;6147412;23;20064;-79
2023/06/11 02:12:30;;;;;;;6.22;4.10;;;14.70;99.90;;;;;;6148983;23;20330;-78
2023/06/11 02:14:56;;;;;;;8.35;4.82;;;;;;;;;;6149446;23;20207;-80
2023/06/11 02:17:22;;;;;;;10.18;4.40;;;14.60;99.90;;;;;;6148815;23;20005;-78
2023/06/11 02:19:49;;;;;;;10.40;4.35;;;;;;;;;;6148781;23;20009;-79
2023/06/11 02:22:15;;;;;;;8.68;4.68;;;13.90;99.90;;;;;;6150582;23;20005;-79
2023/06/11 02:24:41;;;;;;;8.02;4.45;;;;;;;;;;6146302;23;20001;-79
2023/06/11 02:27:06;;;;;;;7.88;4.60;;;14.50;99.90;;;;;;6150285;23;20005;-79
2023/06/11 02:29:32;;;;;;;6.65;4.32;;;14.30;99.90;;;;;;6147607;23;20375;-78
2023/06/11 02:31:57;;;;;;;5.25;3.58;;;14.40;99.90;;;;;;6145864;23;20019;-81
2023/06/11 02:34:23;;;;;;;6.60;3.65;;;;;;;;;;6147883;23;20443;-79
2023/06/11 02:36:50;;;;;;;7.25;3.72;;;;;;;;;;6146089;23;20080;-77
2023/06/11 02:39:16;;;;;;;7.20;4.00;;;14.60;99.90;;;;;;6148444;23;20072;-79
2023/06/11 02:41:41;;;;;;;7.30;4.10;;;14.30;99.90;;;;;;6146926;23;20025;-78
2023/06/11 02:44:07;;;;;;;6.38;4.10;;;14.40;99.90;;;;;;6149168;23;20131;-78
2023/06/11 02:46:32;;;;;;;7.97;3.35;;;14.30;99.90;;;;;;6149459;23;20013;-78
2023/06/11 02:48:58;;;;;;;8.20;4.93;;;;;;;;;;6146588;23;20096;-79
2023/06/11 02:51:24;;;;;;;9.43;4.50;;;;;;;;;;6148203;23;20101;-78
2023/06/11 02:53:50;;;;;;;6.88;4.20;;;;;;;;;;6145594;23;20013;-79
2023/06/11 02:56:16;;;;;;;6.03;3.55;;;;;;;;;;6151037;23;20008;-80
2023/06/11 02:58:42;;;;;;;8.77;4.10;;;;;;;;;;6148163;23;20010;-79
2023/06/11 03:01:08;;;;;;;8.38;4.30;;;14.10;99.90;;;;;;6146443;23;20020;-77
2023/06/11 03:03:34;;;;;;;8.15;3.88;;;;;;;;;;6147306;23;20010;-79
2023/06/11 03:06:00;;;;;;;9.15;4.40;;;14.20;99.90;;;;;;6148549;23;20014;-77
2023/06/11 03:08:25;;;;;;;9.25;4.55;;;14.00;99.90;;;;;;6149342;23;20052;-77
2023/06/11 03:10:51;;;;;;;7.05;4.28;;;14.30;99.90;;;;;;6148987;23;20752;-76
2023/06/11 03:13:17;;;;;;;7.32;4.57;;;;;;;;;;6151006;23;20079;-80
2023/06/11 03:15:42;;;;;;;7.85;4.70;;;13.70;99.90;;;;;;6152368;23;20360;-77
2023/06/11 03:18:08;;;;;;;6.28;4.43;;;14.10;99.90;;;;;;6145516;23;20343;-77
2023/06/11 03:20:33;;;;;;;6.95;4.60;;;13.90;99.90;;;;;;6150872;23;20080;-77
2023/06/11 03:22:59;;;;;;;7.43;4.75;;;;;;;;;;6146862;23;20006;-76
2023/06/11 03:25:25;;;;;;;7.80;4.63;;;14.20;99.90;;;;;;6148877;23;20340;-76
2023/06/11 03:27:51;;;;;;;8.60;5.40;;;13.80;99.90;;;;;;6151505;23;20021;-77
2023/06/11 03:30:16;;;;;;;7.85;5.07;;;14.10;99.90;;;;;;6124841;23;20021;-77
2023/06/11 03:32:42;;;;;;;10.85;5.18;;;14.30;99.90;;;;;;6147660;23;20036;-77
2023/06/11 03:35:07;;;;;;;11.02;5.40;;;14.00;99.90;;;;;;6146815;23;20002;-77
2023/06/11 03:37:33;;;;;;;9.43;4.78;;;14.00;99.90;;;;;;6148673;23;20008;-77
2023/06/11 03:39:59;;;;;;;5.93;3.85;;;14.20;99.90;;;;;;6148550;23;20001;-74
2023/06/11 03:42:24;;;;;;;9.23;5.43;;;13.90;99.90;;;;;;6149795;23;20005;-76
2023/06/11 03:44:52;;;;;;;11.85;4.65;;;14.10;99.90;;;;;;6147379;23;20354;-76
2023/06/11 03:47:18;;;;;;;6.45;4.40;;;14.20;99.90;;;;;;6150535;23;20001;-76
2023/06/11 03:49:45;;;;;;;7.45;4.25;;;14.10;99.90;;;;;;6149843;23;20080;-77
2023/06/11 03:52:11;;;;;;;7.35;4.20;;;14.00;99.90;;;;;;6150477;23;20085;-76
2023/06/11 03:54:36;;;;;;;11.35;4.43;;;14.20;99.90;;;;;;6151134;23;20493;-77
2023/06/11 03:57:02;;;;;;;8.02;5.10;;;14.00;99.90;;;;;;6151089;23;20020;-76
2023/06/11 03:59:27;;;;;;;6.55;3.95;;;14.00;99.90;;;;;;6152364;23;20006;-77
2023/06/11 04:01:53;;;;;;;7.28;4.72;;;;;;;;;;6150398;23;20324;-75
2023/06/11 04:04:19;;;;;;;7.28;3.95;;;14.20;99.90;;;;;;6142217;23;20052;-78
2023/06/11 04:06:45;;;;;;;9.52;4.95;;;13.50;99.90;;;;;;6139577;23;20812;-75
2023/06/11 04:09:10;;;;;;;9.35;3.95;;;14.20;99.90;;;;;;6138900;23;20010;-76
2023/06/11 04:11:36;;;;;;;7.13;4.40;;;;;;;;;;6137253;23;20329;-78
2023/06/11 04:14:02;;;;;;;8.75;5.00;;;14.20;99.90;;;;;;6136905;23;20010;-77
2023/06/11 04:16:27;;;;;;;8.15;4.07;;;14.10;99.90;;;;;;6138092;23;20117;-76
2023/06/11 04:18:53;;;;;;;10.02;4.20;;;14.60;99.90;;;;;;6136618;23;20080;-76
2023/06/11 04:21:18;;;;;;;11.30;5.53;;;14.40;99.90;;;;;;6132214;23;20006;-75
2023/06/11 04:23:44;;;;;;;7.70;4.38;;;14.30;99.90;;;;;;6138227;23;20396;-76
2023/06/11 04:26:10;;;;;;;5.70;4.05;;;14.30;99.90;;;;;;6134901;23;20513;-76
2023/06/11 04:28:40;;;;;;;6.47;3.95;;;14.40;99.90;;;;;;6136836;23;20005;-77
2023/06/11 04:31:06;;;;;;;6.18;3.97;;;14.50;99.90;;;;;;6138734;23;20019;-77
2023/06/11 04:33:33;;;;;;;9.23;4.32;;;;;;;;;;6134408;23;20108;-77
2023/06/11 04:36:00;;;;;;;7.35;5.13;;;14.60;99.90;;;;;;6139523;23;20009;-76
2023/06/11 04:38:28;;;;;;;7.70;5.18;;;13.80;99.90;;;;;;6136204;23;20460;-77
2023/06/11 04:40:55;;;;;;;8.18;4.88;;;14.60;99.90;;;;;;6136502;23;19990;-77
2023/06/11 04:43:22;;;;;;;8.63;4.65;;;14.60;99.90;;;;;;6132033;23;20067;-77
2023/06/11 04:45:49;;;;;;;6.03;4.13;;;14.50;99.90;;;;;;6138685;23;20423;-75
2023/06/11 04:48:21;;;;;;;9.60;4.88;;;;;;;;;;6133971;23;20005;-75
2023/06/11 04:50:51;;;;;;;5.78;3.83;;;15.00;99.90;;;;;;6140281;23;20040;-76
2023/06/11 04:53:21;;;;;;;5.53;3.95;;;16.00;99.90;;;;;;6139763;23;20006;-77
2023/06/11 04:55:49;;;;;;;6.25;4.18;;;16.20;99.90;;;;;;6144020;23;20089;-75
2023/06/11 04:58:15;;;;;;;6.03;4.05;;;16.40;99.90;;;;;;6140525;23;20009;-77
2023/06/11 05:00:42;;;;;;;7.45;4.07;;;17.10;99.90;;;;;;6143045;23;20435;-77
2023/06/11 05:03:09;;;;;;;5.22;3.40;;;17.10;99.90;;;;;;6145799;23;20002;-75
2023/06/11 05:05:35;;;;;;;5.13;2.92;;;15.50;99.90;;;;;;6152469;23;20021;-78
2023/06/11 05:08:01;;;;;;;5.88;3.72;;;17.60;99.90;;;;;;6152930;23;20017;-76
2023/06/11 05:10:26;;;;;;;6.03;3.78;;;17.60;99.90;;;;;;6152535;23;20009;-78
2023/06/11 05:12:53;;;;;;;8.48;4.30;;;17.90;99.90;;;;;;6150434;23;20469;-77
2023/06/11 05:15:19;;;;;;;8.15;3.67;;;19.50;99.90;;;;;;6153240;23;20089;-76
2023/06/11 05:17:45;;;;;;;7.85;3.45;;;;;;;;;;6148574;23;20006;-79
2023/06/11 05:20:11;;;;;;;8.90;3.92;;;18.40;99.90;;;;;;6152515;23;20028;-78
2023/06/11 05:22:37;;;;;;;6.80;3.38;;;18.20;99.90;;;;;;6152743;23;19998;-79
2023/06/11 05:25:03;;;;;;;5.43;3.30;;;17.90;99.90;;;;;;6126225;23;20001;-77
2023/06/11 05:27:29;;;;;;;6.70;4.20;;;18.40;99.90;;;;;;6153194;23;20344;-78
2023/06/11 05:29:56;;;;;;;5.45;3.28;;;18.20;99.90;;;;;;6152518;23;20045;-75
2023/06/11 05:32:22;;;;;;;4.53;3.42;;;20.40;99.90;;;;;;6152386;23;20006;-78
2023/06/11 05:34:49;;;;;;;4.63;3.20;;;18.30;99.90;;;;;;6151687;23;20443;-80
2023/06/11 05:37:16;;;;;;;5.90;3.38;;;18.80;99.90;;;;;;6150951;23;20343;-80
2023/06/11 05:39:42;;;;;;;4.35;2.55;;;;;;;;;;6125480;23;20339;-80
2023/06/11 05:42:08;;;;;;;5.32;2.85;;;18.80;99.90;;;;;;6151180;23;20531;-79
2023/06/11 05:44:33;;;;;;;4.10;2.97;;;;;;;;;;6151971;23;20025;-80
2023/06/11 05:47:00;;;;;;;4.88;3.63;;;19.10;99.90;;;;;;6143962;23;20006;-80
2023/06/11 05:49:26;;;;;;;5.10;3.40;;;;;;;;;;6125636;23;20017;-79
2023/06/11 05:51:52;;;;;;;5.18;3.05;;;;;;;;;;6151364;23;20012;-80
2023/06/11 05:54:19;;;;;;;7.18;4.15;;;;;;;;;;6154222;23;20019;-81
2023/06/11 05:56:45;;;;;;;8.75;3.47;;;20.30;99.90;;;;;;6153272;23;20001;-79
2023/06/11 05:59:10;;;;;;;5.35;3.35;;;21.10;99.90;;;;;;6152856;23;20008;-81
2023/06/11 06:01:36;;;;;;;5.40;2.97;;;;;;;;;;6154134;23;20121;-80
2023/06/11 06:04:02;;;;;;;4.90;2.72;;;23.20;99.90;;;;;;6151252;23;20084;-81
2023/06/11 06:06:29;;;;;;;5.82;3.15;;;24.50;99.90;;;;;;6153103;23;20014;-80
2023/06/11 06:08:55;;;;;;;3.65;2.38;;;;;;;;;;6153850;23;20052;-80
2023/06/11 06:11:21;;;;;;;3.45;2.30;;;25.90;99.90;;;;;;6152785;23;20036;-80
2023/06/11 06:13:47;;;;;;;5.40;2.58;;;27.30;99.90;;;;;;6151121;23;20001;-79
2023/06/11 06:16:13;;;;;;;4.43;2.75;;;27.50;99.90;;;;;;6148731;23;20005;-81
2023/06/11 06:18:39;;;;;;;4.28;2.45;;;;;;;;;;6150055;23;20002;-78
2023/06/11 06:21:05;;;;;;;3.40;2.33;;;29.50;99.40;;;;;;6150905;23;20068;-80
2023/06/11 06:23:31;;;;;;;4.45;2.65;;;30.90;92.60;;;;;;6153183;23;20115;-78
2023/06/11 06:25:58;;;;;;;4.47;2.60;;;;;;;;;;6152793;23;20068;-80
2023/06/11 06:28:24;;;;;;;3.85;2.65;;;;;;;;;;6155162;23;20017;-81
2023/06/11 06:30:50;;;;;;;7.43;2.75;;;;;;;;;;6153006;23;20013;-81
2023/06/11 06:33:16;;;;;;;3.83;2.10;;;;;;;;;;6150963;23;20021;-81
2023/06/11 06:35:42;;;;;;;4.22;2.42;;;34.80;72.90;;;;;;6153115;23;20381;-81
2023/06/11 06:38:08;;;;;;;3.55;2.50;;;;;;;;;;6151389;23;20016;-78
2023/06/11 06:40:34;;;;;;;3.88;2.20;;;;;;;;;;6149717;23;20005;-81
2023/06/11 06:43:00;;;;;;;3.13;1.88;;;37.30;64.30;;;;;;6151899;23;20391;-81
2023/06/11 06:45:25;;;;;;;3.97;2.50;;;37.60;64.50;;;;;;6156537;23;20006;-80
2023/06/11 06:47:51;;;;;;;7.38;2.38;;;37.60;64.20;;;;;;6154988;23;20089;-80
2023/06/11 06:50:17;;;;;;;3.33;2.38;;;;;;;;;;6156550;23;20141;-79
2023/06/11 06:52:42;;;;;;;3.15;2.05;;;38.30;81.20;;;;;;6155268;23;20056;-82
2023/06/11 06:55:08;;;;;;;3.20;2.25;;;38.40;60.90;;;;;;6148652;23;20053;-82
2023/06/11 06:57:34;;;;;;;5.10;2.55;;;38.90;58.90;;;;;;6148158;23;20001;-81
2023/06/11 07:00:02;;;;;;;6.60;2.38;;;38.60;59.10;;;;;;6150911;23;20032;-80
2023/06/11 07:02:27;;;;;;;4.00;2.17;;;38.70;76.80;;;;;;6149822;23;20025;-80
2023/06/11 07:04:53;;;;;;;5.00;2.47;;;;;;;;;;6152519;23;20458;-81
2023/06/11 07:07:19;;;;;;;2.58;1.75;;;39.20;54.30;;;;;;6150489;23;20018;-79
2023/06/11 07:09:46;;;;;;;3.25;1.92;;;38.10;56.20;;;;;;6155672;23;20033;-80
2023/06/11 07:12:12;;;;;;;7.15;2.25;;;37.90;57.00;;;;;;6151591;23;20009;-80
2023/06/11 07:14:39;;;;;;;4.20;1.73;;;36.60;78.90;;;;;;6150004;23;20066;-77
2023/06/11 07:17:04;;;;;;;5.35;2.95;;;36.50;59.30;;;;;;6153663;23;20006;-77
2023/06/11 07:19:30;;;;;;;5.18;3.08;;;35.00;60.50;;;;;;6149574;23;20005;-77
2023/06/11 07:21:55;;;;;;;4.78;2.38;;;34.20;61.40;;;;;;6152155;23;20008;-79
2023/06/11 07:24:21;;;;;;;4.45;2.80;;;33.40;64.70;;;;;;6151449;23;20029;-78
2023/06/11 07:26:47;;;;;;;5.35;2.88;;;32.80;65.80;;;;;;6155560;23;20363;-79
2023/06/11 07:29:13;;;;;;;4.53;2.70;;;33.10;67.10;;;;;;6152835;23;20013;-75
2023/06/11 07:31:39;;;;;;;4.60;2.58;;;;;;;;;;6154305;23;20024;-80
2023/06/11 07:34:06;;;;;;;4.47;2.75;;;33.40;64.00;;;;;;6154011;23;20108;-80
2023/06/11 07:36:33;;;;;;;4.32;2.92;;;33.40;65.60;;;;;;6155040;23;20029;-77
2023/06/11 07:38:59;;;;;;;6.07;2.80;;;33.30;64.90;;;;;;6150841;23;20011;-77
2023/06/11 07:41:25;;;;;;;7.05;2.47;;;;;;;;;;6154420;23;20009;-78
2023/06/11 07:43:52;;;;;;;3.40;2.58;;;32.80;69.30;;;;;;6152921;23;20009;-77
2023/06/11 07:46:24;;;;;;;5.72;3.00;;;33.90;66.90;;;;;;6151916;23;20013;-78
2023/06/11 07:48:50;;;;;;;8.77;2.67;;;;;;;;;;6142846;23;20263;-78
2023/06/11 07:51:16;;;;;;;5.68;2.70;;;35.30;60.40;;;;;;6146306;23;20016;-79
2023/06/11 07:53:44;;;;;;;4.78;2.33;;;37.70;61.40;;;;;;6147776;23;20002;-77
2023/06/11 07:56:09;;;;;;;3.53;2.63;;;37.20;57.90;;;;;;6150759;23;20017;-76
2023/06/11 07:58:36;;;;;;;5.97;2.40;;;;;;;;;;6152856;23;20067;-80
2023/06/11 08:01:01;;;;;;;3.35;1.75;;;38.10;71.50;;;;;;6155830;23;20002;-79
2023/06/11 08:03:27;;;;;;;4.40;2.38;;;37.90;53.60;;;;;;6155967;23;20081;-78
2023/06/11 08:05:52;;;;;;;4.13;2.30;;;38.20;52.90;;;;;;6153366;23;20043;-78
2023/06/11 08:08:18;;;;;;;8.43;2.30;;;37.40;54.20;;;;;;6153518;23;20008;-77
2023/06/11 08:10:45;;;;;;;2.50;1.80;;;36.10;53.00;;;;;;6152420;23;20006;-78
2023/06/11 08:13:11;;;;;;;4.20;2.42;;;34.80;54.60;;;;;;6151449;23;20017;-77
2023/06/11 08:15:37;;;;;;;3.83;2.17;;;33.70;76.90;;;;;;6152556;23;20002;-78
2023/06/11 08:18:03;;;;;;;4.72;2.08;;;;;;;;;;6151596;23;20060;-79
2023/06/11 08:20:29;;;;;;;3.35;1.80;;;32.90;61.10;;;;;;6154381;23;20052;-80
2023/06/11 08:22:54;;;;;;;4.00;1.95;;;32.90;59.70;;;;;;6154756;23;20001;-79
2023/06/11 08:25:20;;;;;;;3.35;2.58;;;31.30;59.50;;;;;;6153414;23;20005;-79
2023/06/11 08:27:46;;;;;;;3.38;2.05;;;;;;;;;;6151984;23;20073;-82
2023/06/11 08:30:12;;;;;;;10.82;2.83;;;32.80;80.30;;;;;;6151870;23;20005;-79
2023/06/11 08:32:37;;;;;;;4.28;2.53;;;32.70;79.20;;;;;;6153612;23;20490;-76
2023/06/11 08:35:04;;;;;;;3.85;2.50;;;32.40;60.00;;;;;;6149202;23;20016;-78
2023/06/11 08:37:30;;;;;;;4.40;2.47;;;;;;;;;;6152798;23;20560;-79
2023/06/11 08:39:55;;;;;;;3.42;2.40;;;33.30;59.40;;;;;;6153310;23;19997;-77
2023/06/11 08:42:21;;;;;;;3.97;2.30;;;34.60;57.70;;;;;;6151128;23;20009;-77
2023/06/11 08:44:48;;;;;;;4.53;2.17;;;35.50;54.70;;;;;;6155515;23;20435;-81
2023/06/11 08:47:15;;;;;;;3.92;1.90;;;38.40;51.30;;;;;;6153933;23;20001;-78
2023/06/11 08:49:44;;;;;;;2.10;1.58;;;39.40;65.00;;;;;;6151591;23;20001;-80
2023/06/11 08:52:12;;;;;;;4.93;1.95;;;39.90;46.00;;;;;;6155017;23;20339;-78
2023/06/11 08:54:37;;;;;;;2.97;1.90;;;39.00;45.90;;;;;;6150884;23;20009;-75
2023/06/11 08:57:07;;;;;;;3.42;1.70;;;39.50;47.30;;;;;;6151446;23;20184;-79
2023/06/11 08:59:32;;;;;;;2.75;1.58;;;39.60;64.00;;;;;;6153193;23;20012;-81
2023/06/11 09:01:58;;;;;;;3.80;1.98;;;40.00;61.30;;;;;;6154473;23;19997;-80
2023/06/11 09:04:23;;;;;;;3.58;1.83;;;40.50;45.60;;;;;;6153604;23;20749;-78
2023/06/11 09:06:57;;;;;;;5.65;2.22;;;40.20;44.70;;;;;;6150163;23;20506;-78
2023/06/11 09:09:23;;;;;;;5.75;2.05;;;40.20;59.90;;;;;;6153001;23;20010;-85
2023/06/11 09:11:49;;;;;;;8.52;2.08;;;40.10;43.40;;;;;;6152622;23;20043;-81
2023/06/11 09:14:16;;;;;;;4.57;1.92;;;40.30;44.60;;;;;;6149817;23;20013;-82
2023/06/11 09:16:43;;;;;;;3.63;1.67;;;40.30;45.60;;;;;;6151706;23;20454;-79
2023/06/11 09:19:18;;;;;;;3.78;2.10;;;40.20;44.90;;;;;;6151836;23;20009;-82
2023/06/11 09:21:51;;;;;;;2.88;1.63;;;40.70;60.10;;;;;;6154520;23;19997;-78
2023/06/11 09:24:20;;;;;;;3.17;1.98;;;40.00;43.50;;;;;;6155168;23;20009;-84
2023/06/11 09:26:54;;;;;;;2.88;1.45;;;39.00;46.30;;;;;;6152672;23;20009;-79
2023/06/11 09:29:21;;;;;;;4.05;1.92;;;38.10;47.20;;;;;;6152776;23;20013;-79
2023/06/11 09:31:47;;;;;;;4.47;1.60;;;;;;;;;;6148701;23;20116;-78
2023/06/11 09:34:16;;;;;;;2.75;1.75;;;;;;;;;;6149655;23;20029;-76
2023/06/11 09:36:46;;;;;;;3.00;1.80;;;32.60;56.40;;;;;;6151869;23;20470;-81
2023/06/11 09:39:13;;;;;;;3.20;1.52;;;32.80;58.10;;;;;;6151865;23;19990;-78
2023/06/11 09:41:49;;;;;;;4.82;2.33;;;31.40;58.10;;;;;;6149653;23;20002;-80
2023/06/11 09:44:19;;;;;;;3.22;1.65;;;30.50;60.50;;;;;;6151706;23;20073;-81
2023/06/11 09:46:47;;;;;;;4.35;2.13;;;30.60;58.30;;;;;;6153815;23;20012;-80
2023/06/11 09:49:13;;;;;;;7.07;2.25;;;;;;;;;;6152569;23;20419;-78
2023/06/11 09:51:40;;;;;;;4.28;1.80;;;29.40;62.70;;;;;;6149755;23;20005;-79
2023/06/11 09:54:12;;;;;;;4.03;1.90;;;29.20;64.10;;;;;;6150369;23;20023;-80
2023/06/11 09:56:42;;;;;;;3.90;1.50;;;28.90;80.40;;;;;;6151189;23;20009;-78
2023/06/11 09:59:10;;;;;;;4.43;2.45;;;29.00;61.90;;;;;;6151377;23;20017;-79
2023/06/11 10:01:37;;;;;;;10.27;2.53;;;;;;;;;;6150844;23;19998;-80
2023/06/11 10:04:02;;;;;;;5.63;2.70;;;28.70;64.00;;;;;;6147674;23;20008;-80
2023/06/11 10:06:35;;;;;;;5.93;2.20;;;28.50;86.80;;;;;;6124874;23;20017;-76
2023/06/11 10:09:04;;;;;;;4.47;2.13;;;28.10;68.20;;;;;;6152786;23;20048;-80
2023/06/11 10:11:38;;;;;;;4.57;2.33;;;28.50;68.90;;;;;;6152239;23;20010;-77
2023/06/11 10:14:10;;;;;;;7.88;2.05;;;27.90;73.70;;;;;;6149168;23;20144;-80
2023/06/11 10:16:35;;;;;;;4.47;2.05;;;28.10;76.30;;;;;;6146890;23;20001;-81
2023/06/11 10:19:08;;;;;;;3.20;1.90;;;28.50;77.30;;;;;;6150123;23;20005;-79
2023/06/11 10:21:49;;;;;;;4.80;2.33;;;28.10;74.80;;;;;;6150616;23;20005;-79
2023/06/11 10:24:26;;;;;;;4.85;2.13;;;27.90;73.30;;;;;;6150710;23;20002;-78
2023/06/11 10:27:14;;;;;;;7.63;2.53;;;28.30;74.60;;;;;;6151100;23;20009;-78
2023/06/11 10:29:47;;;;;;;5.85;2.13;;;28.20;80.30;;;;;;6154921;23;20009;-80
2023/06/11 10:32:21;;;;;;;3.45;1.80;;;27.80;77.70;;;;;;6153165;23;20006;-79
2023/06/11 10:34:58;;;;;;;4.25;1.70;;;28.30;80.70;;;;;;6151482;23;20069;-80
2023/06/11 10:37:35;;;;;;;6.85;2.58;;;28.00;78.50;;;;;;6126542;23;20006;-78
2023/06/11 10:40:01;;;;;;;4.03;1.90;;;28.20;78.70;;;;;;6144688;23;20005;-78
2023/06/11 10:42:33;;;;;;;3.40;2.20;;;28.00;82.70;;;;;;6149670;23;20017;-80
2023/06/11 10:44:59;;;;;;;4.88;2.63;;;27.80;82.00;;;;;;6145295;23;20002;-78
2023/06/11 10:47:26;;;;;;;4.18;1.70;;;28.40;86.40;;;;;;6146502;23;20040;-76
2023/06/11 10:49:53;;;;;;;2.70;1.85;;;27.90;81.90;;;;;;6146189;23;20435;-79
2023/06/11 10:52:19;;;;;;;5.18;2.45;;;27.60;85.30;;;;;;6149386;23;20088;-79
2023/06/11 10:54:49;;;;;;;5.45;3.08;;;27.60;84.90;;;;;;6151659;23;20080;-79
2023/06/11 10:57:15;;;;;;;7.30;2.22;;;27.70;82.70;;;;;;6148567;23;20005;-78
2023/06/11 10:59:41;;;;;;;3.08;2.00;;;27.90;80.80;;;;;;6146479;23;20012;-76
2023/06/11 11:02:12;;;;;;;5.10;2.78;;;27.60;83.70;;;;;;6151216;23;20001;-79
2023/06/11 11:04:51;;;;;;;4.68;2.55;;;27.40;87.30;;;;;;6151504;23;20008;-81
2023/06/11 11:07:17;;;;;;;4.85;2.08;;;27.50;97.60;;;;;;6153707;23;20013;-77
2023/06/11 11:09:42;;;;;;;4.15;2.35;;;27.60;86.60;;;;;;6153640;23;20012;-78
2023/06/11 11:12:10;;;;;;;8.23;2.55;;;27.60;88.30;;;;;;6150266;23;20005;-78
2023/06/11 11:14:35;;;;;;;6.97;2.53;;;27.80;90.10;;;;;;6151760;23;20017;-78
2023/06/11 11:17:01;;;;;;;4.28;2.10;;;27.90;88.30;;;;;;6152434;23;20430;-79
2023/06/11 11:19:27;;;;;;;3.75;2.13;;;28.00;86.40;;;;;;6153763;23;20427;-77
2023/06/11 11:21:53;;;;;;;4.22;2.40;;;28.20;87.10;;;;;;6151476;23;20006;-78
2023/06/11 11:24:20;;;;;;;3.80;2.03;;;27.90;88.70;;;;;;6152436;23;20002;-78
2023/06/11 11:26:46;;;;;;;4.68;2.22;;;28.20;88.40;;;;;;6151245;23;20005;-79
2023/06/11 11:29:12;;;;;;;5.40;2.38;;;28.20;88.30;;;;;;6149575;23;20088;-79
2023/06/11 11:31:39;;;;;;;5.53;2.67;;;28.30;88.70;;;;;;6148528;23;20033;-78
2023/06/11 11:34:05;;;;;;;5.97;2.22;;;27.80;85.00;;;;;;6151064;23;20009;-78
2023/06/11 11:36:32;;;;;;;4.47;2.33;;;28.50;85.60;;;;;;6149618;23;20366;-77
2023/06/11 11:39:10;;;;;;;5.05;2.35;;;27.80;87.40;;;;;;6144514;23;19994;-77
2023/06/11 11:41:50;;;;;;;4.70;2.20;;;27.80;87.20;;;;;;6148853;23;20447;-79
2023/06/11 11:44:16;;;;;;;3.83;1.67;;;28.10;84.60;;;;;;6152514;23;20006;-75
2023/06/11 11:46:43;;;;;;;4.65;2.22;;;28.00;84.30;;;;;;6153714;23;20020;-80
2023/06/11 11:49:12;;;;;;;3.53;2.03;;;28.20;85.50;;;;;;6147029;23;20006;-79
2023/06/11 11:51:45;;;;;;;5.30;2.67;;;27.80;84.80;;;;;;6151819;23;20028;-79
2023/06/11 11:54:14;;;;;;;3.13;2.00;;;28.00;97.10;;;;;;6150995;23;20431;-78
2023/06/11 11:56:40;;;;;;;3.45;2.03;;;28.00;87.40;;;;;;6154339;23;20010;-77
2023/06/11 11:59:21;;;;;;;4.30;2.10;;;28.20;87.80;;;;;;6149670;23;20012;-78
2023/06/11 12:01:58;;;;;;;5.57;2.28;;;28.00;83.30;;;;;;6152147;23;20005;-80
2023/06/11 12:04:57;;;;;;;3.88;2.22;;;28.10;86.30;;;;;;6151822;23;20442;-78
2023/06/11 12:07:23;;;;;;;4.68;3.10;;;28.10;86.60;;;;;;6131918;23;20482;-81
2023/06/11 12:09:49;;;;;;;3.83;2.17;;;28.10;86.40;;;;;;6152329;23;20036;-77
2023/06/11 12:12:14;;;;;;;5.00;2.60;;;28.30;86.80;;;;;;6152737;23;20434;-78
2023/06/11 12:14:40;;;;;;;7.50;2.47;;;28.00;96.30;;;;;;6151383;23;20073;-76
2023/06/11 12:17:10;;;;;;;4.40;2.30;;;28.10;85.10;;;;;;6151875;23;20423;-79
2023/06/11 12:19:36;;;;;;;4.07;2.85;;;28.50;87.00;;;;;;6149212;23;20013;-80
2023/06/11 12:22:05;;;;;;;3.70;2.42;;;28.30;96.50;;;;;;6152606;23;19997;-78
2023/06/11 12:24:32;;;;;;;13.15;3.33;;;28.30;97.50;;;;;;6153481;23;20021;-79
2023/06/11 12:26:59;;;;;;;9.80;4.68;;;28.30;87.60;;;;;;6154651;23;20002;-78
2023/06/11 12:29:24;;;;;;;5.78;3.60;;;28.40;86.20;;;;;;6129099;23;20506;-79
2023/06/11 12:31:50;;;;;;;4.85;2.78;;;28.60;88.40;;;;;;6152368;23;20001;-78
2023/06/11 12:34:16;;;;;;;3.88;2.13;;;28.40;88.90;;;;;;6149636;23;20009;-79
2023/06/11 12:36:46;;;;;;;9.80;2.50;;;28.40;86.70;;;;;;6151020;23;20013;-80
2023/06/11 12:39:13;;;;;;;3.75;2.38;;;28.50;86.80;;;;;;6153438;23;20005;-79
2023/06/11 12:41:39;;;;;;;5.05;2.53;;;28.60;85.90;;;;;;6154114;23;20001;-79
2023/06/11 12:44:05;;;;;;;3.92;2.55;;;28.40;85.40;;;;;;6150932;23;20059;-82
2023/06/11 12:46:32;;;;;;;2.95;1.67;;;28.10;85.50;;;;;;6147835;23;20439;-80
2023/06/11 12:48:57;;;;;;;7.38;2.28;;;29.00;82.90;;;;;;6149803;23;20013;-77
2023/06/11 12:51:23;;;;;;;3.78;2.08;;;28.20;84.30;;;;;;6153720;23;20433;-81
2023/06/11 12:53:51;;;;;;;6.22;1.88;;;28.30;87.30;;;;;;6148386;23;20510;-78
2023/06/11 12:56:18;;;;;;;5.30;2.80;;;;;;;;;;6155525;23;20089;-81
2023/06/11 12:58:44;;;;;;;5.85;2.42;;;28.60;83.90;;;;;;6156118;23;20040;-82
2023/06/11 13:01:09;;;;;;;3.83;2.40;;;28.30;88.30;;;;;;6155701;23;20001;-79
2023/06/11 13:03:35;;;;;;;3.35;2.08;;;28.50;86.80;;;;;;6153739;23;20044;-81
2023/06/11 13:06:01;;;;;;;4.68;2.53;;;28.50;85.90;;;;;;6154887;23;20048;-80